createdAt,value
2017-12-22T00:00:27.557Z,103135.17
2017-12-22T00:02:54.074Z,103131.23
2017-12-22T00:05:20.290Z,103123.76
2017-12-22T00:07:47.759Z,103120.68
2017-12-22T00:10:13.987Z,103120.70
2017-12-22T00:12:40.173Z,103112.38
2017-12-22T00:15:06.466Z,103113.25
2017-12-22T00:17:32.701Z,103113.67
2017-12-22T00:19:58.926Z,103116.30
2017-12-22T00:22:29.057Z,103114.55
2017-12-22T00:24:55.378Z,103112.34
2017-12-22T00:27:21.585Z,103111.48
2017-12-22T00:29:48.221Z,103108.83
2017-12-22T00:32:14.434Z,103112.33
2017-12-22T00:34:40.980Z,103105.30
2017-12-22T00:37:07.226Z,103114.02
2017-12-22T00:39:33.444Z,103110.52
2017-12-22T00:41:59.686Z,103119.70
2017-12-22T00:44:26.301Z,103107.47
2017-12-22T00:46:52.636Z,103099.16
2017-12-22T00:49:18.822Z,103095.22
2017-12-22T00:51:45.134Z,103099.14
2017-12-22T00:54:11.352Z,103093.00
2017-12-22T00:56:37.530Z,103099.95
2017-12-22T00:59:03.774Z,103100.41
2017-12-22T01:01:30.303Z,103094.70
2017-12-22T01:03:56.572Z,103090.33
2017-12-22T01:06:23.244Z,103093.83
2017-12-22T01:08:49.417Z,103089.02
2017-12-22T01:11:15.622Z,103085.92
2017-12-22T01:13:42.202Z,103089.87
2017-12-22T01:16:14.527Z,103089.41
2017-12-22T01:18:46.971Z,103090.73
2017-12-22T01:21:13.151Z,103101.20
2017-12-22T01:23:39.373Z,103097.69
2017-12-22T01:26:05.642Z,103094.63
2017-12-22T01:28:31.908Z,103088.06
2017-12-22T01:30:58.156Z,103089.83
2017-12-22T01:33:24.460Z,103093.73
2017-12-22T01:35:50.665Z,103093.28
2017-12-22T01:38:16.882Z,103088.94
2017-12-22T01:40:43.144Z,103091.11
2017-12-22T01:43:09.708Z,103088.02
2017-12-22T01:45:35.940Z,103090.20
2017-12-22T01:48:02.307Z,103088.88
2017-12-22T01:50:28.525Z,103092.35
2017-12-22T01:52:54.751Z,103090.59
2017-12-22T01:55:21.058Z,103091.91
2017-12-22T01:57:47.282Z,103101.52
2017-12-22T02:00:13.505Z,103101.96
2017-12-22T02:02:40.314Z,103104.14
2017-12-22T02:05:06.589Z,103105.42
2017-12-22T02:07:32.826Z,103101.91
2017-12-22T02:09:59.440Z,103107.58
2017-12-22T02:12:25.653Z,103111.10
2017-12-22T02:14:51.920Z,103108.00
2017-12-22T02:17:18.214Z,103106.22
2017-12-22T02:19:44.452Z,103106.67
2017-12-22T02:22:10.657Z,103097.93
2017-12-22T02:24:36.890Z,103100.11
2017-12-22T02:27:03.069Z,103101.84
2017-12-22T02:29:29.578Z,103101.40
2017-12-22T02:31:55.871Z,103097.44
2017-12-22T02:34:22.103Z,103096.99
2017-12-22T02:36:48.526Z,103097.44
2017-12-22T02:39:14.847Z,103099.17
2017-12-22T02:41:41.070Z,103099.56
2017-12-22T02:44:07.315Z,103104.37
2017-12-22T02:46:33.708Z,103101.75
2017-12-22T02:48:59.931Z,103115.31
2017-12-22T02:51:26.174Z,103116.62
2017-12-22T02:53:52.510Z,103118.36
2017-12-22T02:56:18.742Z,103115.73
2017-12-22T02:58:44.966Z,103117.02
2017-12-22T03:01:11.562Z,103115.67
2017-12-22T03:03:37.749Z,103107.36
2017-12-22T03:06:10.087Z,103115.66
2017-12-22T03:08:36.350Z,103124.83
2017-12-22T03:11:02.593Z,103124.84
2017-12-22T03:13:29.153Z,103131.39
2017-12-22T03:15:55.415Z,103130.50
2017-12-22T03:18:21.672Z,103133.55
2017-12-22T03:20:48.248Z,103127.44
2017-12-22T03:23:14.790Z,103119.54
2017-12-22T03:25:41.037Z,103127.38
2017-12-22T03:28:07.266Z,103118.65
2017-12-22T03:30:33.553Z,103121.24
2017-12-22T03:33:00.099Z,103114.24
2017-12-22T03:35:26.353Z,103118.63
2017-12-22T03:37:52.551Z,103120.36
2017-12-22T03:40:19.098Z,103114.64
2017-12-22T03:42:45.365Z,103112.91
2017-12-22T03:45:11.564Z,103115.05
2017-12-22T03:47:37.788Z,103124.66
2017-12-22T03:50:04.115Z,103127.27
2017-12-22T03:52:30.510Z,103118.52
2017-12-22T03:54:56.751Z,103115.44
2017-12-22T03:57:23.063Z,103100.58
2017-12-22T03:59:49.301Z,103098.81
2017-12-22T04:02:15.493Z,103099.27
2017-12-22T04:04:41.991Z,103093.99
2017-12-22T04:07:08.268Z,103090.48
2017-12-22T04:09:34.450Z,103096.14
2017-12-22T04:12:00.637Z,103092.19
2017-12-22T04:14:27.281Z,103101.81
2017-12-22T04:16:53.533Z,103098.74
2017-12-22T04:19:19.847Z,103100.47
2017-12-22T04:21:46.449Z,103098.71
2017-12-22T04:24:12.633Z,103096.09
2017-12-22T04:26:38.825Z,103100.00
2017-12-22T04:29:05.047Z,103096.48
2017-12-22T04:31:31.227Z,103094.76
2017-12-22T04:33:57.754Z,103096.91
2017-12-22T04:36:24.011Z,103095.14
2017-12-22T04:38:50.237Z,103099.98
2017-12-22T04:41:16.846Z,103110.91
2017-12-22T04:43:43.074Z,103114.39
2017-12-22T04:46:09.333Z,103117.44
2017-12-22T04:48:36.046Z,103123.55
2017-12-22T04:51:02.303Z,103120.05
2017-12-22T04:53:28.554Z,103113.50
2017-12-22T04:55:54.847Z,103106.50
2017-12-22T04:58:21.046Z,103086.81
2017-12-22T05:00:47.230Z,103081.54
2017-12-22T05:03:13.663Z,103087.23
2017-12-22T05:05:40.263Z,103096.83
2017-12-22T05:08:06.458Z,103105.14
2017-12-22T05:10:32.735Z,103107.31
2017-12-22T05:12:59.018Z,103112.97
2017-12-22T05:15:25.223Z,103108.59
2017-12-22T05:17:51.523Z,103118.22
2017-12-22T05:20:17.766Z,103113.84
2017-12-22T05:22:43.965Z,103118.64
2017-12-22T05:25:10.258Z,103115.57
2017-12-22T05:27:36.441Z,103122.98
2017-12-22T05:30:02.680Z,103121.27
2017-12-22T05:32:29.272Z,103119.06
2017-12-22T05:34:55.815Z,103118.19
2017-12-22T05:37:22.068Z,103123.85
2017-12-22T05:39:48.685Z,103128.23
2017-12-22T05:42:14.863Z,103126.03
2017-12-22T05:44:41.062Z,103129.52
2017-12-22T05:47:07.662Z,103134.79
2017-12-22T05:49:33.857Z,103137.83
2017-12-22T05:52:00.155Z,103142.17
2017-12-22T05:54:26.795Z,103145.24
2017-12-22T05:56:53.226Z,103147.87
2017-12-22T05:59:19.616Z,103146.08
2017-12-22T06:01:46.157Z,103145.66
2017-12-22T06:04:12.378Z,103137.80
2017-12-22T06:06:38.581Z,103137.34
2017-12-22T06:09:04.914Z,103133.83
2017-12-22T06:11:31.148Z,103134.28
2017-12-22T06:13:57.715Z,103133.83
2017-12-22T06:16:24.279Z,103139.97
2017-12-22T06:18:50.737Z,103140.39
2017-12-22T06:21:16.931Z,103133.83
2017-12-22T06:23:43.208Z,103136.88
2017-12-22T06:26:09.410Z,103135.13
2017-12-22T06:28:35.902Z,103133.36
2017-12-22T06:31:02.194Z,103131.63
2017-12-22T06:33:28.434Z,103139.91
2017-12-22T06:35:54.869Z,103139.02
2017-12-22T06:38:21.181Z,103144.30
2017-12-22T06:40:47.389Z,103142.98
2017-12-22T06:43:13.625Z,103136.81
2017-12-22T06:45:39.927Z,103141.64
2017-12-22T06:48:06.163Z,103149.05
2017-12-22T06:50:32.374Z,103146.41
2017-12-22T06:52:59.235Z,103150.78
2017-12-22T06:55:25.751Z,103144.23
2017-12-22T06:57:51.967Z,103146.86
2017-12-22T07:00:18.214Z,103139.41
2017-12-22T07:02:44.463Z,103138.96
2017-12-22T07:05:10.688Z,103136.34
2017-12-22T07:07:36.933Z,103136.76
2017-12-22T07:10:03.602Z,103122.76
2017-12-22T07:12:29.811Z,103130.20
2017-12-22T07:14:56.031Z,103145.94
2017-12-22T07:17:22.323Z,103154.21
2017-12-22T07:19:48.524Z,103162.11
2017-12-22T07:22:14.791Z,103170.83
2017-12-22T07:24:41.081Z,103160.73
2017-12-22T07:27:07.312Z,103176.05
2017-12-22T07:29:33.854Z,103185.22
2017-12-22T07:32:00.091Z,103184.33
2017-12-22T07:34:26.387Z,103184.30
2017-12-22T07:36:52.614Z,103180.81
2017-12-22T07:39:19.293Z,103179.91
2017-12-22T07:41:45.554Z,103178.19
2017-12-22T07:44:11.778Z,103169.02
2017-12-22T07:46:38.034Z,103167.23
2017-12-22T07:49:04.255Z,103165.02
2017-12-22T07:51:30.721Z,103174.20
2017-12-22T07:53:56.985Z,103167.61
2017-12-22T07:56:23.256Z,103171.99
2017-12-22T07:58:49.530Z,103177.23
2017-12-22T08:01:15.846Z,103192.06
2017-12-22T08:03:42.091Z,103183.72
2017-12-22T08:06:08.317Z,103187.69
2017-12-22T08:08:34.562Z,103195.09
2017-12-22T08:11:00.788Z,103213.89
2017-12-22T08:13:26.998Z,103220.44
2017-12-22T08:15:53.236Z,103224.79
2017-12-22T08:18:19.746Z,103223.89
2017-12-22T08:20:45.978Z,103199.86
2017-12-22T08:23:12.558Z,103200.27
2017-12-22T08:25:38.731Z,103193.28
2017-12-22T08:28:05.275Z,103202.45
2017-12-22T08:30:32.098Z,103222.52
2017-12-22T08:32:58.308Z,103235.63
2017-12-22T08:35:24.749Z,103241.72
2017-12-22T08:37:51.390Z,103238.66
2017-12-22T08:40:18.591Z,103236.89
2017-12-22T08:42:44.807Z,103243.89
2017-12-22T08:45:11.374Z,103251.27
2017-12-22T08:47:37.604Z,103252.59
2017-12-22T08:50:04.100Z,103258.69
2017-12-22T08:52:30.411Z,103262.62
2017-12-22T08:54:56.625Z,103271.83
2017-12-22T08:57:22.866Z,103274.86
2017-12-22T08:59:49.824Z,103281.82
2017-12-22T09:02:16.066Z,103275.72
2017-12-22T09:04:42.281Z,103283.13
2017-12-22T09:07:08.565Z,103284.89
2017-12-22T09:09:34.785Z,103275.30
2017-12-22T09:12:01.039Z,103272.23
2017-12-22T09:14:27.336Z,103273.58
2017-12-22T09:16:53.587Z,103278.82
2017-12-22T09:19:19.752Z,103284.95
2017-12-22T09:21:46.025Z,103278.41
2017-12-22T09:24:12.232Z,103278.82
2017-12-22T09:26:38.450Z,103277.92
2017-12-22T09:29:05.142Z,103270.52
2017-12-22T09:31:31.641Z,103289.30
2017-12-22T09:33:57.836Z,103287.55
2017-12-22T09:36:24.065Z,103283.17
2017-12-22T09:38:50.273Z,103286.69
2017-12-22T09:41:16.506Z,103294.13
2017-12-22T09:43:42.733Z,103299.38
2017-12-22T09:46:08.981Z,103303.27
2017-12-22T09:48:35.214Z,103310.68
2017-12-22T09:51:01.529Z,103310.27
2017-12-22T09:53:27.836Z,103305.47
2017-12-22T09:55:54.109Z,103308.13
2017-12-22T09:58:20.430Z,103304.61
2017-12-22T10:00:46.623Z,103306.38
2017-12-22T10:03:12.863Z,103301.99
2017-12-22T10:05:39.409Z,103301.13
2017-12-22T10:08:05.660Z,103308.55
2017-12-22T10:10:32.100Z,103313.33
2017-12-22T10:12:58.562Z,103313.33
2017-12-22T10:15:24.770Z,103309.86
2017-12-22T10:17:51.010Z,103309.86
2017-12-22T10:20:18.030Z,103291.95
2017-12-22T10:22:44.269Z,103286.72
2017-12-22T10:25:10.788Z,103288.03
2017-12-22T10:27:37.049Z,103292.41
2017-12-22T10:30:03.655Z,103294.58
2017-12-22T10:32:29.874Z,103284.55
2017-12-22T10:34:56.520Z,103282.82
2017-12-22T10:37:22.709Z,103280.61
2017-12-22T10:39:48.980Z,103277.09
2017-12-22T10:42:15.221Z,103276.69
2017-12-22T10:44:41.731Z,103291.09
2017-12-22T10:47:07.979Z,103283.65
2017-12-22T10:49:34.190Z,103291.52
2017-12-22T10:52:00.429Z,103284.55
2017-12-22T10:54:26.707Z,103285.86
2017-12-22T10:56:53.228Z,103294.61
2017-12-22T10:59:19.453Z,103298.09
2017-12-22T11:01:45.718Z,103298.99
2017-12-22T11:04:11.992Z,103296.34
2017-12-22T11:06:38.279Z,103296.78
2017-12-22T11:09:04.952Z,103300.30
2017-12-22T11:11:31.170Z,103298.09
2017-12-22T11:13:57.389Z,103298.55
2017-12-22T11:16:23.974Z,103288.92
2017-12-22T11:18:50.188Z,103290.27
2017-12-22T11:21:16.414Z,103285.89
2017-12-22T11:23:43.136Z,103291.61
2017-12-22T11:26:09.402Z,103294.27
2017-12-22T11:28:35.996Z,103290.75
2017-12-22T11:31:02.286Z,103295.55
2017-12-22T11:33:28.496Z,103296.44
2017-12-22T11:35:54.714Z,103290.78
2017-12-22T11:38:21.319Z,103283.78
2017-12-22T11:40:47.563Z,103276.78
2017-12-22T11:43:13.746Z,103281.16
2017-12-22T11:45:40.016Z,103271.13
2017-12-22T11:48:06.241Z,103262.41
2017-12-22T11:50:32.483Z,103251.51
2017-12-22T11:52:59.191Z,103255.86
2017-12-22T11:55:25.482Z,103245.78
2017-12-22T11:57:51.706Z,103243.13
2017-12-22T12:00:18.002Z,103240.52
2017-12-22T12:02:44.252Z,103254.48
2017-12-22T12:05:10.430Z,103257.09
2017-12-22T12:07:36.675Z,103260.17
2017-12-22T12:10:02.904Z,103262.79
2017-12-22T12:12:29.193Z,103247.06
2017-12-22T12:14:55.476Z,103249.23
2017-12-22T12:17:21.747Z,103243.13
2017-12-22T12:19:47.960Z,103245.30
2017-12-22T12:22:14.573Z,103245.75
2017-12-22T12:24:40.768Z,103246.65
2017-12-22T12:27:07.866Z,103244.03
2017-12-22T12:29:34.532Z,103235.75
2017-12-22T12:32:00.788Z,103234.02
2017-12-22T12:34:27.026Z,103240.61
2017-12-22T12:36:53.299Z,103245.41
2017-12-22T12:39:19.498Z,103238.41
2017-12-22T12:41:45.716Z,103242.33
2017-12-22T12:44:12.453Z,103237.09
2017-12-22T12:46:38.732Z,103239.71
2017-12-22T12:49:04.924Z,103238.85
2017-12-22T12:51:31.187Z,103239.71
2017-12-22T12:53:58.016Z,103235.78
2017-12-22T12:56:24.256Z,103240.16
2017-12-22T12:58:50.587Z,103237.95
2017-12-22T13:01:16.797Z,103240.58
2017-12-22T13:03:43.046Z,103242.75
2017-12-22T13:06:09.281Z,103241.89
2017-12-22T13:08:35.590Z,103248.86
2017-12-22T13:11:01.935Z,103250.61
2017-12-22T13:13:28.186Z,103254.96
2017-12-22T13:15:54.751Z,103257.58
2017-12-22T13:18:20.966Z,103251.02
2017-12-22T13:20:47.222Z,103242.30
2017-12-22T13:23:13.828Z,103238.38
2017-12-22T13:25:40.062Z,103243.20
2017-12-22T13:28:06.679Z,103238.78
2017-12-22T13:30:32.942Z,103235.30
2017-12-22T13:32:59.133Z,103246.69
2017-12-22T13:35:25.800Z,103237.06
2017-12-22T13:37:52.012Z,103241.89
2017-12-22T13:40:18.247Z,103242.30
2017-12-22T13:42:44.824Z,103254.99
2017-12-22T13:45:11.033Z,103254.96
2017-12-22T13:47:37.664Z,103263.27
2017-12-22T13:50:03.867Z,103268.48
2017-12-22T13:52:30.127Z,103277.20
2017-12-22T13:54:56.460Z,103280.69
2017-12-22T13:57:22.691Z,103292.86
2017-12-22T13:59:48.897Z,103288.03
2017-12-22T14:02:15.139Z,103273.58
2017-12-22T14:04:41.382Z,103263.52
2017-12-22T14:07:07.604Z,103269.17
2017-12-22T14:09:34.222Z,103260.41
2017-12-22T14:12:00.459Z,103262.14
2017-12-22T14:14:26.632Z,103258.66
2017-12-22T14:16:52.893Z,103263.00
2017-12-22T14:19:19.110Z,103258.66
2017-12-22T14:21:45.349Z,103250.34
2017-12-22T14:24:11.942Z,103252.93
2017-12-22T14:26:38.195Z,103238.07
2017-12-22T14:29:04.407Z,103247.66
2017-12-22T14:31:30.682Z,103251.11
2017-12-22T14:36:28.879Z,103263.79
2017-12-22T14:38:55.446Z,103250.20
2017-12-22T14:41:21.637Z,103245.38
2017-12-22T14:43:47.878Z,103240.14
2017-12-22T14:46:14.151Z,103248.00
2017-12-22T14:48:40.434Z,103248.42
2017-12-22T14:51:06.620Z,103253.63
2017-12-22T14:53:32.939Z,103252.31
2017-12-22T14:55:59.124Z,103250.97
2017-12-22T14:58:25.324Z,103256.17
2017-12-22T15:00:51.929Z,103265.30
2017-12-22T15:03:18.184Z,103266.61
2017-12-22T15:05:44.399Z,103266.61
2017-12-22T15:08:10.972Z,103268.37
2017-12-22T15:10:37.224Z,103265.72
2017-12-22T15:13:03.498Z,103270.05
2017-12-22T15:15:29.740Z,103266.98
2017-12-22T15:17:55.977Z,103275.70
2017-12-22T15:20:22.236Z,103279.59
2017-12-22T15:22:48.916Z,103282.22
2017-12-22T15:25:15.134Z,103283.05
2017-12-22T15:27:41.717Z,103277.80
2017-12-22T15:30:08.548Z,103271.67
2017-12-22T15:32:35.092Z,103268.16
2017-12-22T15:35:01.339Z,103267.25
2017-12-22T15:37:28.061Z,103266.36
2017-12-22T15:39:54.278Z,103264.56
2017-12-22T15:42:20.827Z,103269.39
2017-12-22T15:44:47.425Z,103260.67
2017-12-22T15:47:13.642Z,103257.61
2017-12-22T15:49:39.857Z,103257.16
2017-12-22T15:52:06.156Z,103257.13
2017-12-22T15:54:32.688Z,103261.05
2017-12-22T15:56:58.960Z,103270.17
2017-12-22T15:59:25.271Z,103264.94
2017-12-22T16:01:51.486Z,103255.70
2017-12-22T16:04:18.137Z,103256.60
2017-12-22T16:06:44.364Z,103255.70
2017-12-22T16:09:10.862Z,103245.64
2017-12-22T16:11:37.159Z,103254.36
2017-12-22T16:14:03.475Z,103258.28
2017-12-22T16:16:29.698Z,103256.52
2017-12-22T16:18:55.958Z,103273.09
2017-12-22T16:21:22.201Z,103265.20
2017-12-22T16:23:48.454Z,103268.23
2017-12-22T16:26:14.722Z,103259.93
2017-12-22T16:28:40.961Z,103257.31
2017-12-22T16:31:07.153Z,103259.03
2017-12-22T16:33:33.448Z,103252.03
2017-12-22T16:35:59.671Z,103261.65
2017-12-22T16:38:25.912Z,103254.20
2017-12-22T16:40:52.197Z,103255.52
2017-12-22T16:43:18.674Z,103257.69
2017-12-22T16:45:44.923Z,103250.66
2017-12-22T16:48:11.247Z,103247.59
2017-12-22T16:50:37.508Z,103241.49
2017-12-22T16:53:03.698Z,103238.83
2017-12-22T16:55:30.019Z,103245.83
2017-12-22T16:57:56.276Z,103242.31
2017-12-22T17:00:22.531Z,103245.83
2017-12-22T17:02:48.818Z,103253.64
2017-12-22T17:05:15.079Z,103248.41
2017-12-22T17:07:41.680Z,103254.51
2017-12-22T17:10:08.336Z,103252.78
2017-12-22T17:12:34.530Z,103249.72
2017-12-22T17:15:00.729Z,103259.30
2017-12-22T17:17:26.961Z,103256.64
2017-12-22T17:19:53.423Z,103267.11
2017-12-22T17:22:19.669Z,103268.86
2017-12-22T17:24:45.926Z,103271.89
2017-12-22T17:27:12.165Z,103292.34
2017-12-22T17:29:38.414Z,103286.70
2017-12-22T17:32:05.037Z,103280.56
2017-12-22T17:34:31.624Z,103280.98
2017-12-22T17:36:57.836Z,103287.52
2017-12-22T17:39:24.110Z,103289.66
2017-12-22T17:41:50.317Z,103277.42
2017-12-22T17:44:16.576Z,103277.42
2017-12-22T17:46:42.812Z,103286.55
2017-12-22T17:49:08.994Z,103290.92
2017-12-22T17:51:35.411Z,103292.67
2017-12-22T17:54:01.645Z,103297.47
2017-12-22T17:56:27.838Z,103306.62
2017-12-22T17:58:54.055Z,103302.70
2017-12-22T18:01:20.870Z,103301.39
2017-12-22T18:03:47.365Z,103300.98
2017-12-22T18:06:13.603Z,103281.31
2017-12-22T18:08:40.174Z,103286.95
2017-12-22T18:11:06.464Z,103283.44
2017-12-22T18:13:32.723Z,103272.08
2017-12-22T18:15:59.005Z,103272.48
2017-12-22T18:18:25.207Z,103266.75
2017-12-22T18:20:51.648Z,103268.48
2017-12-22T18:23:17.922Z,103265.00
2017-12-22T18:25:44.341Z,103262.38
2017-12-22T18:28:10.580Z,103262.83
2017-12-22T18:30:36.844Z,103261.11
2017-12-22T18:33:03.097Z,103261.11
2017-12-22T18:35:29.342Z,103260.21
2017-12-22T18:37:55.971Z,103268.02
2017-12-22T18:40:22.164Z,103272.41
2017-12-22T18:42:48.381Z,103273.71
2017-12-22T18:45:14.971Z,103278.94
2017-12-22T18:47:41.181Z,103269.34
2017-12-22T18:50:07.407Z,103268.47
2017-12-22T18:52:33.703Z,103270.67
2017-12-22T18:54:59.894Z,103281.56
2017-12-22T18:57:26.097Z,103289.82
2017-12-22T18:59:52.483Z,103290.27
2017-12-22T19:02:18.740Z,103293.34
2017-12-22T19:04:44.906Z,103296.81
2017-12-22T19:07:11.160Z,103300.73
2017-12-22T19:09:37.388Z,103304.22
2017-12-22T19:12:03.618Z,103308.55
2017-12-22T19:14:30.246Z,103306.38
2017-12-22T19:16:56.470Z,103309.41
2017-12-22T19:19:22.921Z,103301.97
2017-12-22T19:21:49.184Z,103314.20
2017-12-22T19:24:15.409Z,103315.54
2017-12-22T19:26:41.614Z,103316.41
2017-12-22T19:29:07.916Z,103322.91
2017-12-22T19:31:34.138Z,103322.91
2017-12-22T19:34:00.377Z,103318.53
2017-12-22T19:36:26.632Z,103312.84
2017-12-22T19:38:52.813Z,103321.59
2017-12-22T19:41:19.032Z,103312.39
2017-12-22T19:43:45.312Z,103316.36
2017-12-22T19:46:11.512Z,103311.13
2017-12-22T19:48:37.779Z,103310.63
2017-12-22T19:51:04.398Z,103305.84
2017-12-22T19:53:30.682Z,103307.16
2017-12-22T19:55:56.859Z,103306.62
2017-12-22T19:58:23.158Z,103315.83
2017-12-22T20:00:49.520Z,103306.62
2017-12-22T20:03:26.913Z,103306.17
2017-12-22T20:05:53.183Z,103305.73
2017-12-22T20:08:19.410Z,103293.54
2017-12-22T20:10:45.750Z,103284.37
2017-12-22T20:13:11.978Z,103286.09
2017-12-22T20:15:38.154Z,103290.88
2017-12-22T20:18:04.693Z,103296.53
2017-12-22T20:20:30.935Z,103293.45
2017-12-22T20:22:57.230Z,103302.66
2017-12-22T20:25:23.814Z,103289.58
2017-12-22T20:27:50.047Z,103291.30
2017-12-22T20:30:16.241Z,103292.60
2017-12-22T20:32:42.543Z,103291.30
2017-12-22T20:35:09.091Z,103287.33
2017-12-22T20:37:35.332Z,103281.59
2017-12-22T20:40:01.573Z,103277.68
2017-12-22T20:42:27.946Z,103272.89
2017-12-22T20:44:54.146Z,103279.89
2017-12-22T20:47:20.502Z,103278.58
2017-12-22T20:49:46.755Z,103270.73
2017-12-22T20:52:12.999Z,103265.91
2017-12-22T20:54:39.308Z,103264.15
2017-12-22T20:57:05.532Z,103256.30
2017-12-22T20:59:31.778Z,103249.31
2017-12-22T21:01:58.101Z,103250.61
2017-12-22T21:04:24.361Z,103249.72
2017-12-22T21:06:50.546Z,103262.39
2017-12-22T21:09:16.786Z,103266.72
2017-12-22T21:11:42.982Z,103258.34
2017-12-22T21:14:09.178Z,103271.50
2017-12-22T21:16:35.454Z,103269.75
2017-12-22T21:19:01.679Z,103275.42
2017-12-22T21:21:27.926Z,103270.61
2017-12-22T21:23:54.237Z,103265.78
2017-12-22T21:26:20.507Z,103266.64
2017-12-22T21:28:46.739Z,103267.50
2017-12-22T21:31:13.368Z,103264.06
2017-12-22T21:33:39.595Z,103263.61
2017-12-22T21:36:05.836Z,103269.22
2017-12-22T21:38:32.118Z,103267.01
2017-12-22T21:40:58.298Z,103267.05
2017-12-22T21:43:24.509Z,103274.45
2017-12-22T21:45:51.446Z,103281.88
2017-12-22T21:48:17.670Z,103275.34
2017-12-22T21:50:44.208Z,103279.27
2017-12-22T21:53:10.475Z,103266.14
2017-12-22T21:55:36.969Z,103258.30
2017-12-22T21:58:03.153Z,103257.89
2017-12-22T22:00:29.434Z,103256.09
2017-12-22T22:02:56.057Z,103243.91
2017-12-22T22:05:22.242Z,103243.02
2017-12-22T22:07:48.574Z,103243.87
2017-12-22T22:10:14.826Z,103236.88
2017-12-22T22:12:41.012Z,103232.50
2017-12-22T22:15:07.283Z,103225.97
2017-12-22T22:17:33.543Z,103216.36
2017-12-22T22:19:59.772Z,103216.77
2017-12-22T22:22:26.035Z,103211.09
2017-12-22T22:24:52.304Z,103211.95
2017-12-22T22:27:18.489Z,103225.89
2017-12-22T22:29:44.751Z,103216.73
2017-12-22T22:32:11.019Z,103218.94
2017-12-22T22:34:37.246Z,103218.90
2017-12-22T22:37:03.906Z,103211.50
2017-12-22T22:39:30.173Z,103210.19
2017-12-22T22:41:56.415Z,103207.09
2017-12-22T22:44:22.654Z,103200.13
2017-12-22T22:46:48.897Z,103196.62
2017-12-22T22:49:15.129Z,103194.00
2017-12-22T22:51:41.754Z,103199.16
2017-12-22T22:54:07.996Z,103192.17
2017-12-22T22:56:34.522Z,103190.45
2017-12-22T22:59:00.762Z,103183.02
2017-12-22T23:01:26.966Z,103176.47
2017-12-22T23:03:53.229Z,103175.13
2017-12-22T23:06:19.502Z,103175.54
2017-12-22T23:08:45.748Z,103178.16
2017-12-22T23:11:11.949Z,103170.34
2017-12-22T23:13:38.246Z,103169.45
2017-12-22T23:16:04.440Z,103164.66
2017-12-22T23:18:30.747Z,103166.38
2017-12-22T23:20:57.071Z,103168.55
2017-12-22T23:23:23.296Z,103158.98
2017-12-22T23:25:49.881Z,103150.28
2017-12-22T23:28:16.574Z,103144.19
2017-12-22T23:30:42.848Z,103141.09
2017-12-22T23:33:09.370Z,103138.47
2017-12-22T23:35:35.655Z,103138.89
2017-12-22T23:38:02.885Z,103137.12
2017-12-22T23:40:29.396Z,103129.24
2017-12-22T23:42:55.650Z,103131.86
2017-12-22T23:45:21.851Z,103127.08
2017-12-22T23:47:48.157Z,103121.84
2017-12-22T23:50:14.434Z,103117.89
2017-12-22T23:52:40.623Z,103115.72
2017-12-22T23:55:06.829Z,103113.10
2017-12-22T23:57:33.069Z,103101.30
2017-12-22T23:59:59.283Z,103102.16
